Aérodrome :
LOGIN :

S'inscrire | Disclaimer

   EN    FR    IT 

 










Légende :    VFR   VFR Marginal   IFR   IFR Intensif   IFR Très Intensif
Visi : 
Plafond : 
>= 8 km
>= 3000ft
5 à 8 km
1000 à 3000 ft
1500m à 5 km
500 à 1000 ft
800 à 1500m
200 à 500 ft
< 800m
< 200 ft
Symboles :   Orages  Brouillard  Fortes neiges  Fortes précipitations  Vent > 20 kt
SIGMETs :   Divers  Orages  Givrage  Turbulence  Onde Orograph.  Cendres Volcan.






- Altitude de l'aérodrome : 764 ft
- Code IATA : YEI


LTBR - Yenisehir AB

DERNIER METAR :
  • 140020Z 00000KT CAVOK 15/13 Q1015 NOSIG RMK RWY07 07004KT

METARs EXPIRÉS :
  • 132350Z 09002KT CAVOK 16/13 Q1015 NOSIG RMK RWY07 VRB02KT
  • 132320Z VRB01KT CAVOK 16/14 Q1015 NOSIG RMK RWY07 08002KT
  • 132250Z VRB03KT CAVOK 17/14 Q1015 NOSIG RMK RWY07 VRB02KT
  • 132220Z 06002KT CAVOK 17/14 Q1015 NOSIG RMK RWY07 05003KT
  • 132150Z 05003KT CAVOK 18/14 Q1015 NOSIG

TAF TAF LTBR
Valide du 14 à 00h jusqu'au 15 à 00h UTC


132240Z 1400/1424 VRB02KT CAVOK
BECMG 1409/1412 36012KT
PROB30 1412/1415 FEW040
BECMG 1415/1418 VRB02KT



MET'MAP, la Météo Aéronautique d'un coup d'oeil ! - Copyright ORBIFLY Décembre 2007 - Disclaimer

ORBIFLY MET'MAP TEAM :

Programmation & Développement : Alexandra Zaïnal
Sur une idée originale de : Baudouin d'Aumeries
Assistance à la programmation : Marc-Olivier Méhu
Soutien technique & logistique : Manuel Goepfert

Contact : metmap@orbifly.com




SOURCES & CREDITS :

   NOAA